Last 24 Hours

Aguanga Barbara Trail

10 Minute Data | America/Los_Angeles
as of 1/27/20 12:22 PM PST
Date & Time Temp (°F) Dew Pt (°F) RH (%) Wind Spd (mph) Wind Dir (°) Wind Gust (mph) Wind Gst Dir (°) Daily Max Temp (°F) Daily Min Temp (°F)
1/27/20 - 1220 59.1 41.2 51 4.4 W | 264 7.7 WSW | 250 64.7 38.2
1/27/20 - 1210 58.9 41.5 52 4.2 W | 269 7.0 WNW | 289 64.7 38.2
1/27/20 - 1200 58.4 40.9 52 5.1 W | 268 7.5 W | 272 64.7 38.2
1/27/20 - 1150 59.4 39.9 48 6.4 WSW | 238 9.6 SW | 233 64.7 38.2
1/27/20 - 1140 59.4 39.3 47 3.0 SW | 226 5.7 WSW | 239 64.7 38.2
1/27/20 - 1130 58.1 39.8 50 3.7 WSW | 254 7.7 SW | 228 64.7 38.2
1/27/20 - 1120 60.2 37.5 43 7.7 SW | 234 10.5 SW | 235 64.7 38.2
1/27/20 - 1110 63.3 28.2 26 7.0 ENE | 60 12.5 NE | 55 64.7 38.2
1/27/20 - 1100 62.6 27.3 26 9.1 ENE | 76 17.8 ENE | 58 63.1 38.2
1/27/20 - 1050 62.3 27.3 26 12.2 NE | 55 19.1 NE | 46 62.8 38.2
1/27/20 - 1040 61.9 27.0 26 12.4 ENE | 70 20.0 ENE | 64 62.6 38.2
1/27/20 - 1030 61.5 26.6 26 13.2 ENE | 65 21.5 ENE | 61 62.3 38.2
1/27/20 - 1020 61.1 26.7 27 14.0 ENE | 65 21.9 ENE | 70 61.9 38.2
1/27/20 - 1010 60.4 26.8 28 15.9 ENE | 70 23.4 E | 85 61.1 38.2
1/27/20 - 1000 60.3 27.0 28 16.1 ENE | 71 25.2 ENE | 72 61.1 38.2
1/27/20 - 0950 60.3 26.6 27 16.4 ENE | 72 23.9 ENE | 76 60.8 38.2
1/27/20 - 0940 59.9 26.6 28 15.4 ENE | 72 22.1 E | 84 60.4 38.2
1/27/20 - 0930 59.6 26.4 28 15.1 ENE | 72 21.9 E | 82 60.2 38.2
1/27/20 - 0920 58.9 26.3 28 14.9 ENE | 70 23.2 ENE | 66 59.5 38.2
1/27/20 - 0910 58.4 26.5 29 16.1 ENE | 70 24.3 ENE | 68 58.8 38.2
1/27/20 - 0900 57.9 27.0 30 15.2 ENE | 67 23.7 ENE | 65 58.3 38.2
1/27/20 - 0850 57.4 28.2 33 15.0 ENE | 68 21.5 ENE | 68 57.8 38.2
1/27/20 - 0840 56.7 30.1 36 14.7 ENE | 68 23.9 E | 82 57.2 38.2
1/27/20 - 0830 56.0 30.7 38 15.0 ENE | 68 22.4 ENE | 58 56.6 38.2
1/27/20 - 0820 55.3 31.1 39 14.8 ENE | 66 23.4 ENE | 76 55.8 38.2
1/27/20 - 0810 54.6 31.7 42 13.0 ENE | 60 19.7 ENE | 70 55.0 38.2
1/27/20 - 0800 53.9 31.7 42 13.9 NE | 51 21.0 ENE | 62 54.5 38.2
1/27/20 - 0750 53.7 31.4 42 14.9 ENE | 59 21.0 ENE | 75 54.2 38.2
1/27/20 - 0740 51.7 32.2 47 13.9 ENE | 60 21.3 NE | 52 53.4 38.2
1/27/20 - 0730 46.5 32.2 57 9.2 NE | 45 16.2 ENE | 57 49.9 38.2
1/27/20 - 0720 48.4 32.3 54 5.8 ENE | 68 12.1 ESE | 109 49.9 38.2
1/27/20 - 0710 47.9 32.2 54 6.8 E | 93 9.9 E | 92 49.8 38.2
1/27/20 - 0700 44.2 31.7 61 6.2 ENE | 67 8.6 ENE | 64 49.8 38.2
1/27/20 - 0650 43.9 31.5 62 6.3 NE | 48 9.6 NE | 52 49.8 38.2
1/27/20 - 0640 43.1 31.5 63 6.3 NE | 38 9.9 NE | 41 49.8 38.2
1/27/20 - 0630 42.5 31.9 66 6.1 NE | 49 9.2 NE | 35 49.8 38.2
1/27/20 - 0620 43.2 31.8 64 6.6 NE | 51 8.6 NE | 51 49.8 38.2
1/27/20 - 0610 42.0 31.5 66 6.7 NE | 50 8.6 NE | 48 49.8 38.2
1/27/20 - 0600 44.3 31.3 60 7.4 NE | 52 10.3 NE | 49 49.8 38.2
1/27/20 - 0550 43.2 31.7 64 6.4 NE | 52 8.6 ENE | 57 49.8 38.2
1/27/20 - 0540 40.3 31.0 69 6.6 ENE | 63 7.9 ENE | 62 49.8 38.2
1/27/20 - 0530 41.1 30.9 67 6.1 ENE | 58 8.6 NE | 48 49.8 38.2
1/27/20 - 0520 45.0 32.5 62 4.9 ENE | 61 6.1 ENE | 65 49.8 38.2
1/27/20 - 0510 43.0 32.9 67 6.0 ENE | 64 7.2 ENE | 62 49.8 38.2
1/27/20 - 0500 41.8 32.4 69 6.5 ENE | 62 7.7 ENE | 61 49.8 38.2
1/27/20 - 0450 41.3 32.1 69 5.8 NE | 50 7.0 ENE | 58 49.8 38.2
1/27/20 - 0440 40.8 31.7 70 5.5 NE | 48 6.8 NE | 36 49.8 38.2
1/27/20 - 0430 40.0 31.6 72 6.2 NE | 52 7.7 NE | 54 49.8 38.2
1/27/20 - 0420 40.5 31.2 69 5.9 NE | 48 8.3 ENE | 58 49.8 38.2
1/27/20 - 0410 44.6 32.7 63 4.3 ENE | 66 6.1 ENE | 66 49.8 39.2
1/27/20 - 0400 44.2 32.6 63 4.7 ENE | 76 7.0 ENE | 66 49.8 39.2
1/27/20 - 0350 43.6 32.7 65 4.5 ENE | 69 6.8 ENE | 62 49.8 39.2
1/27/20 - 0340 39.8 31.8 73 5.8 ENE | 63 7.2 ENE | 60 49.8 39.2
1/27/20 - 0330 40.5 31.8 71 5.7 NE | 42 7.2 ENE | 59 49.8 39.6
1/27/20 - 0320 40.5 31.8 71 5.5 NE | 45 7.0 NE | 35 49.8 39.9
1/27/20 - 0310 41.9 31.8 67 4.2 NE | 50 6.1 NNE | 33 49.8 40.0
1/27/20 - 0300 42.8 32.1 66 5.6 ENE | 66 7.9 ENE | 68 49.8 40.6
1/27/20 - 0250 42.4 32.1 67 4.8 ENE | 64 6.8 ENE | 67 49.8 40.6
1/27/20 - 0240 42.8 32.2 66 4.8 ENE | 60 5.7 ENE | 69 49.8 41.8
1/27/20 - 0230 46.2 32.4 58 3.9 NE | 38 5.7 NNE | 33 49.8 42.8
1/27/20 - 0220 45.6 32.5 60 4.9 NE | 35 5.9 NE | 48 49.8 42.8
1/27/20 - 0210 44.0 32.7 64 5.3 ENE | 58 7.0 ENE | 64 49.8 42.8
1/27/20 - 0200 45.3 33.1 62 5.2 ENE | 65 7.0 ENE | 62 49.8 42.8
1/27/20 - 0150 44.8 32.9 63 4.0 NE | 50 5.9 NE | 56 49.8 42.8
1/27/20 - 0140 45.7 33.1 61 3.9 NE | 55 6.1 ENE | 62 49.8 42.8
1/27/20 - 0130 44.2 33.2 65 5.0 NE | 46 6.6 NNE | 30 49.8 42.8
1/27/20 - 0120 43.9 32.8 65 4.7 NNE | 32 5.9 NNE | 21 49.8 42.8
1/27/20 - 0110 47.3 32.8 57 1.7 NE | 41 5.0 NNE | 30 49.8 45.3
1/27/20 - 0100 47.7 33.2 57 3.3 E | 83 5.5 ENE | 72 49.8 45.4
1/27/20 - 0050 49.1 33.2 54 2.6 NE | 47 5.0 ENE | 75 49.8 45.4
1/27/20 - 0040 47.3 33.8 59 4.1 ENE | 73 5.7 ENE | 67 49.8 45.4
1/27/20 - 0030 48.5 34.5 58 4.0 ENE | 62 5.3 ENE | 75 49.8 45.4
1/27/20 - 0020 48.7 35.2 59 3.1 NNE | 29 5.7 ENE | 68 49.8 45.4
1/27/20 - 0010 46.7 37.2 69 5.2 NE | 54 7.5 NE | 52 47.9 45.4
1/27/20 - 0000 47.0 39.1 74 2.3 NNE | 28 3.9 ENE | 58 58.0 41.5
1/26/20 - 2350 46.7 39.6 76 4.0 ENE | 70 6.6 ENE | 73 58.0 41.5
1/26/20 - 2340 48.3 40.8 75 1.5 ESE | 113 5.7 E | 83 58.0 41.5
1/26/20 - 2330 48.5 41.2 76 1.0 ENE | 63 3.7 ENE | 73 58.0 41.5
1/26/20 - 2320 48.4 41.3 76 1.8 ENE | 77 4.4 ENE | 77 58.0 41.5
1/26/20 - 2310 48.4 40.6 74 2.4 ESE | 114 5.0 E | 98 58.0 41.5
1/26/20 - 2300 49.6 39.5 68 1.4 SE | 144 2.6 SE | 124 58.0 41.5
1/26/20 - 2250 49.3 38.5 66 2.1 SE | 127 3.3 SE | 142 58.0 41.5
1/26/20 - 2240 48.1 38.4 69 3.6 ESE | 104 5.0 E | 80 58.0 41.5
1/26/20 - 2230 46.1 38.3 74 3.9 E | 84 6.4 ENE | 67 58.0 41.5
1/26/20 - 2220 45.2 38.2 76 4.3 ENE | 59 5.9 ENE | 63 58.0 41.5
1/26/20 - 2210 44.6 37.5 76 5.1 NE | 41 7.0 NNE | 32 58.0 41.5
1/26/20 - 2200 46.2 38.2 74 2.6 ENE | 60 5.5 ENE | 67 58.0 41.5
1/26/20 - 2150 44.8 37.3 75 4.7 ENE | 70 8.6 ENE | 78 58.0 41.5
1/26/20 - 2140 46.3 38.1 73 2.9 NE | 55 6.4 ENE | 67 58.0 41.5
1/26/20 - 2130 45.5 38.3 76 3.7 NE | 43 6.4 NE | 37 58.0 41.5
1/26/20 - 2120 46.0 38.6 75 3.2 NE | 47 5.0 NNE | 32 58.0 41.5
1/26/20 - 2110 44.6 39.3 81 5.6 ENE | 65 7.7 ENE | 59 58.0 41.5
1/26/20 - 2100 42.1 38.6 87 8.2 NE | 56 10.7 ENE | 57 58.0 41.5
1/26/20 - 2050 42.1 38.5 87 8.5 NE | 47 12.7 NE | 41 58.0 41.5
1/26/20 - 2040 45.4 39.8 80 5.2 NE | 55 11.8 NE | 45 58.0 42.3
1/26/20 - 2030 46.7 40.7 80 3.5 NE | 37 6.4 NE | 53 58.0 42.3
1/26/20 - 2020 47.2 41.3 80 5.6 NE | 55 6.8 NE | 47 58.0 42.3
1/26/20 - 2010 46.2 41.6 84 7.3 ENE | 62 10.5 ENE | 68 58.0 42.3
1/26/20 - 2000 45.6 41.0 84 8.6 ENE | 57 12.1 NE | 53 58.0 42.3
1/26/20 - 1950 45.7 40.8 83 10.0 NE | 51 15.3 ENE | 58 58.0 42.3
1/26/20 - 1940 45.5 40.7 83 9.4 ENE | 60 12.9 ENE | 57 58.0 42.3
1/26/20 - 1930 44.9 41.4 87 9.7 ENE | 58 12.7 NE | 56 58.0 42.3
1/26/20 - 1920 44.6 43.2 95 7.1 ENE | 57 9.4 ENE | 57 58.0 42.3
1/26/20 - 1910 44.2 43.8 99 4.6 E | 80 8.1 NE | 55 58.0 42.3
1/26/20 - 1900 44.2 43.9 99 4.8 NE | 53 5.7 NE | 51 58.0 42.3
1/26/20 - 1850 44.6 44.2 98 4.0 E | 82 7.2 E | 89 58.0 42.3
1/26/20 - 1840 45.0 44.5 98 2.9 NNW | 332 7.5 WNW | 292 58.0 42.3
1/26/20 - 1830 45.0 44.5 98 10.4 WNW | 297 15.1 WNW | 292 58.0 42.3
1/26/20 - 1820 45.4 44.8 98 8.9 WNW | 291 14.5 WNW | 289 58.0 42.3
1/26/20 - 1810 45.7 45.1 97 4.1 W | 280 7.2 WNW | 285 58.0 42.3
1/26/20 - 1800 45.8 45.0 97 1.9 WNW | 302 5.5 NW | 314 58.0 42.3
1/26/20 - 1750 46.2 45.3 96 2.7 WSW | 240 4.4 SW | 232 58.0 42.3
1/26/20 - 1740 46.6 45.4 96 2.6 WSW | 241 5.0 W | 269 58.0 42.3
1/26/20 - 1730 47.2 45.6 94 4.8 W | 263 7.0 W | 261 58.0 42.3
1/26/20 - 1720 47.8 45.7 92 1.3 WSW | 239 3.9 W | 270 58.0 42.3
1/26/20 - 1710 48.4 45.8 91 1.7 SW | 217 3.7 W | 281 58.0 42.3
1/26/20 - 1700 48.8 46.0 90 3.2 W | 274 5.3 W | 277 58.0 42.3
1/26/20 - 1650 49.8 45.9 86 5.4 W | 275 6.8 W | 279 58.0 42.3
1/26/20 - 1640 51.5 45.8 81 4.6 W | 265 6.8 WSW | 257 58.0 42.3
1/26/20 - 1630 53.2 44.8 73 6.2 W | 270 8.8 W | 276 58.0 42.3
1/26/20 - 1620 54.4 43.8 67 5.9 W | 267 9.4 W | 274 58.0 42.3
1/26/20 - 1610 54.6 43.1 65 5.9 W | 269 8.8 W | 274 58.0 42.3
1/26/20 - 1600 54.6 43.7 66 6.6 W | 272 9.6 WSW | 255 58.0 42.3
1/26/20 - 1550 54.5 43.9 67 7.7 W | 270 12.3 W | 269 58.0 42.3
1/26/20 - 1540 54.6 43.9 67 5.4 W | 264 7.9 WSW | 249 58.0 42.3
1/26/20 - 1530 55.1 43.8 66 6.5 W | 260 9.4 W | 268 58.0 42.3
1/26/20 - 1520 56.3 43.0 61 7.9 W | 270 11.4 W | 266 58.0 42.3
1/26/20 - 1510 56.6 42.3 58 6.8 W | 264 10.1 W | 264 58.0 42.3
1/26/20 - 1500 56.9 40.8 55 8.0 W | 265 12.5 W | 260 58.0 42.3
1/26/20 - 1450 57.3 41.1 55 7.7 W | 272 12.1 W | 263 58.0 42.3
1/26/20 - 1440 57.4 40.2 53 7.9 W | 278 12.1 W | 280 58.0 42.3
1/26/20 - 1430 57.1 38.8 50 6.7 WNW | 284 10.3 W | 275 58.0 42.3
1/26/20 - 1420 56.9 39.4 52 7.0 W | 280 11.4 W | 279 58.0 42.3
1/26/20 - 1410 56.7 39.5 53 9.5 WNW | 283 14.9 W | 271 58.0 42.3
1/26/20 - 1400 57.1 38.7 50 9.7 W | 281 14.7 W | 268 58.0 42.3
1/26/20 - 1350 56.4 39.9 54 10.3 WNW | 289 14.9 WNW | 283 57.9 42.3
1/26/20 - 1340 56.2 41.0 57 10.5 W | 276 14.7 WNW | 283 57.9 42.3
1/26/20 - 1330 56.8 40.5 54 10.4 W | 281 15.1 W | 273 57.9 42.3
1/26/20 - 1320 56.6 41.8 58 8.7 W | 280 13.6 W | 274 57.9 42.3
1/26/20 - 1310 56.0 42.1 60 10.3 W | 264 15.3 W | 271 57.9 42.3
1/26/20 - 1300 56.3 42.7 60 9.4 W | 265 12.9 W | 259 57.9 42.3
1/26/20 - 1250 56.8 42.6 59 8.7 W | 260 11.8 W | 261 57.9 42.3
1/26/20 - 1240 57.2 42.1 57 7.3 W | 265 11.4 WSW | 253 57.9 42.3
1/26/20 - 1230 56.6 42.0 58 7.3 W | 270 11.0 W | 277 57.9 42.3
1/26/20 - 1220 57.2 41.7 56 6.6 W | 280 13.2 WNW | 291 57.9 42.3
Max 63.3 46.0 99 16.4 - 25.2 - 64.7 45.4
Avg 49.8 36.7 64 6.8 - 10.4 - - -
Min 39.8 26.3 26 1.0 - 2.6 - 47.9 38.2